MSC Antalya — VRME8 — position and weather

sailwx.info

Track history (hours):
 
Tides and Currents Weather Stations Pressure Air Temp Water Temp Dewpoint Dewpoint Depression Visibility Wind Speed Wind Dir Waves Ship Positions

MSC Antalya

Last reported at 2017-Nov-24 02:00 UTC. Time now 2017-Nov-24 02:08 UTC.
Position N 38°29' E 012°50'.

Length 300 m; draft 11.9 m.

Type: Ship (hazmat cat D). MMSI: 477220400.

Date/timePositionNaut miles runAvg speedWind from/ knotsBaromVisibWave heightAir tempDewpointWater temp
2017-Nov-24 02:00N 38°29' E 012°50'1121.6
2017-Nov-24 01:31N 38°30' E 012°36'1121.8
2017-Nov-24 01:00N 38°30' E 012°22'1121.8
2017-Nov-24 00:30N 38°31' E 012°08'12221.7
2017-Nov-23 18:52N 38°37' E 009°32'2021.5
2017-Nov-23 17:56N 38°38' E 009°06'1121.9
2017-Nov-23 17:26N 38°39' E 008°52'921.4
2017-Nov-23 17:00N 38°41' E 008°41'33821.6
2017-Nov-23 01:24N 41°18' E 002°10'  
2017-Nov-19 06:20N 35°33' W 023°33'820.2
2017-Nov-19 05:58N 35°32' W 023°42'1019.9
2017-Nov-19 05:28N 35°31' W 023°54'1419.9
2017-Nov-19 04:45N 35°30' W 024°12'1919.9
2017-Nov-19 03:49N 35°28' W 024°35'619.9
2017-Nov-19 03:30N 35°27' W 024°42'1219.7
2017-Nov-19 02:52N 35°26' W 024°57'919.7
2017-Nov-19 02:26N 35°25' W 025°08'919.8
2017-Nov-19 01:58N 35°24' W 025°19'1019.8
2017-Nov-19 01:28N 35°23' W 025°31'1019.9
2017-Nov-19 00:59N 35°21' W 025°43'1220.0
2017-Nov-19 00:22N 35°20' W 025°58'720.0
2017-Nov-19 00:00N 35°19' W 026°06'1020.2
2017-Nov-18 23:30N 35°18' W 026°19'1620.2
2017-Nov-18 22:43N 35°15' W 026°38'420.3
2017-Nov-18 22:30N 35°15' W 026°43'  
Track history (hours):
 
Tides and Currents Weather Stations Pressure Air Temp Water Temp Dewpoint Dewpoint Depression Visibility Wind Speed Wind Dir Waves Ship Positions

MSC Antalya

Last reported at 2017-Nov-24 02:00 UTC. Time now 2017-Nov-24 02:08 UTC.
Position N 38°29' E 012°50'.

Length 300 m; draft 11.9 m.

Type: Ship (hazmat cat D). MMSI: 477220400.

Date/timePositionNaut miles runAvg speedWind from/ knotsBaromVisibWave heightAir tempDewpointWater temp
2017-Nov-24 02:00N 38°29' E 012°50'1121.6
2017-Nov-24 01:31N 38°30' E 012°36'1121.8
2017-Nov-24 01:00N 38°30' E 012°22'1121.8
2017-Nov-24 00:30N 38°31' E 012°08'12221.7
2017-Nov-23 18:52N 38°37' E 009°32'2021.5
2017-Nov-23 17:56N 38°38' E 009°06'1121.9
2017-Nov-23 17:26N 38°39' E 008°52'921.4
2017-Nov-23 17:00N 38°41' E 008°41'33821.6
2017-Nov-23 01:24N 41°18' E 002°10'  
2017-Nov-19 06:20N 35°33' W 023°33'820.2
2017-Nov-19 05:58N 35°32' W 023°42'1019.9
2017-Nov-19 05:28N 35°31' W 023°54'1419.9
2017-Nov-19 04:45N 35°30' W 024°12'1919.9
2017-Nov-19 03:49N 35°28' W 024°35'619.9
2017-Nov-19 03:30N 35°27' W 024°42'1219.7
2017-Nov-19 02:52N 35°26' W 024°57'919.7
2017-Nov-19 02:26N 35°25' W 025°08'919.8
2017-Nov-19 01:58N 35°24' W 025°19'1019.8
2017-Nov-19 01:28N 35°23' W 025°31'1019.9
2017-Nov-19 00:59N 35°21' W 025°43'1220.0
2017-Nov-19 00:22N 35°20' W 025°58'720.0
2017-Nov-19 00:00N 35°19' W 026°06'1020.2
2017-Nov-18 23:30N 35°18' W 026°19'1620.2
2017-Nov-18 22:43N 35°15' W 026°38'420.3
2017-Nov-18 22:30N 35°15' W 026°43'  

Dump ship's entire track history